Kenton, Oklahoma
Current Conditions -  °F | °C
As of 4:55 AM on Monday 22 Dec 2014 (Local Time) from KCAO Reporting Station
Light Rain Light Rain  
Wind Chill: 28°   Ceiling: 3500
Heat Index: 38°   Visibility: 10mi
Dew Point: 35°   Wind: 20mph
Humidity: 89%   Direction: 330°NNW
Pressure: 29.74"   Gusts: 28mph
Location:  36.9°N, 102.96°W
Report Text: KCAO 221055Z AUTO 33017G24KT 10SM -RA OVC035 03/02 A2974 RMK AO2 PK WND 35029/1032 RAB12 SLP052 P0000 T00330017
Loading
Personal Weather Stations






























Interactive Weather Map New forecast layout! Learn more

10-Day Weather Forecast

Advertisements
Track Severe Weather on mobile